sensor_id;sensor_type;location;lat;lon;timestamp;P1;durP1;ratioP1;P2;durP2;ratioP2
49828;SDS011;35723;51.194;5.112;2023-09-12T00:00:53;26.52;;;14.10;;
49828;SDS011;35723;51.194;5.112;2023-09-12T00:03:19;22.30;;;13.80;;
49828;SDS011;35723;51.194;5.112;2023-09-12T00:05:52;25.25;;;13.80;;
49828;SDS011;35723;51.194;5.112;2023-09-12T00:08:18;27.80;;;13.90;;
49828;SDS011;35723;51.194;5.112;2023-09-12T00:10:44;24.70;;;13.32;;
49828;SDS011;35723;51.194;5.112;2023-09-12T00:13:10;23.35;;;13.88;;
49828;SDS011;35723;51.194;5.112;2023-09-12T00:15:36;25.25;;;14.65;;
49828;SDS011;35723;51.194;5.112;2023-09-12T00:18:02;23.02;;;14.07;;
49828;SDS011;35723;51.194;5.112;2023-09-12T00:20:28;30.15;;;13.85;;
49828;SDS011;35723;51.194;5.112;2023-09-12T00:22:53;22.23;;;13.40;;
49828;SDS011;35723;51.194;5.112;2023-09-12T00:25:20;23.33;;;13.75;;
49828;SDS011;35723;51.194;5.112;2023-09-12T00:27:46;25.83;;;14.18;;
49828;SDS011;35723;51.194;5.112;2023-09-12T00:30:11;22.10;;;12.70;;
49828;SDS011;35723;51.194;5.112;2023-09-12T00:32:39;24.92;;;13.05;;
49828;SDS011;35723;51.194;5.112;2023-09-12T00:35:04;25.15;;;14.52;;
49828;SDS011;35723;51.194;5.112;2023-09-12T00:37:30;28.80;;;14.40;;
49828;SDS011;35723;51.194;5.112;2023-09-12T00:39:56;24.88;;;14.05;;
49828;SDS011;35723;51.194;5.112;2023-09-12T00:42:24;24.58;;;12.80;;
49828;SDS011;35723;51.194;5.112;2023-09-12T00:44:51;21.40;;;12.38;;
49828;SDS011;35723;51.194;5.112;2023-09-12T00:47:16;24.92;;;12.75;;
49828;SDS011;35723;51.194;5.112;2023-09-12T00:49:43;25.95;;;12.63;;
49828;SDS011;35723;51.194;5.112;2023-09-12T00:52:09;25.58;;;13.13;;
49828;SDS011;35723;51.194;5.112;2023-09-12T00:54:37;23.75;;;13.45;;
49828;SDS011;35723;51.194;5.112;2023-09-12T00:57:04;23.92;;;13.82;;
49828;SDS011;35723;51.194;5.112;2023-09-12T00:59:30;25.35;;;12.85;;
49828;SDS011;35723;51.194;5.112;2023-09-12T01:01:56;27.35;;;13.30;;
49828;SDS011;35723;51.194;5.112;2023-09-12T01:04:22;23.40;;;12.57;;
49828;SDS011;35723;51.194;5.112;2023-09-12T01:06:48;23.92;;;13.25;;
49828;SDS011;35723;51.194;5.112;2023-09-12T01:09:14;26.50;;;14.63;;
49828;SDS011;35723;51.194;5.112;2023-09-12T01:11:39;29.00;;;14.02;;
49828;SDS011;35723;51.194;5.112;2023-09-12T01:14:06;24.95;;;14.18;;
49828;SDS011;35723;51.194;5.112;2023-09-12T01:16:31;27.60;;;14.55;;
49828;SDS011;35723;51.194;5.112;2023-09-12T01:18:57;25.95;;;13.68;;
49828;SDS011;35723;51.194;5.112;2023-09-12T01:21:36;25.25;;;13.52;;
49828;SDS011;35723;51.194;5.112;2023-09-12T01:30:00;23.52;;;13.95;;
49828;SDS011;35723;51.194;5.112;2023-09-12T01:32:31;23.92;;;13.85;;
49828;SDS011;35723;51.194;5.112;2023-09-12T01:34:57;22.10;;;13.02;;
49828;SDS011;35723;51.194;5.112;2023-09-12T01:37:23;25.65;;;12.80;;
49828;SDS011;35723;51.194;5.112;2023-09-12T01:39:49;26.10;;;12.85;;
49828;SDS011;35723;51.194;5.112;2023-09-12T01:42:15;27.55;;;13.27;;
49828;SDS011;35723;51.194;5.112;2023-09-12T01:44:44;23.23;;;12.07;;
49828;SDS011;35723;51.194;5.112;2023-09-12T01:47:11;26.73;;;14.07;;
49828;SDS011;35723;51.194;5.112;2023-09-12T01:49:42;21.92;;;12.98;;
49828;SDS011;35723;51.194;5.112;2023-09-12T01:52:10;23.83;;;14.20;;
49828;SDS011;35723;51.194;5.112;2023-09-12T01:54:36;28.13;;;14.10;;
49828;SDS011;35723;51.194;5.112;2023-09-12T01:57:03;26.05;;;15.15;;
49828;SDS011;35723;51.194;5.112;2023-09-12T01:59:29;24.00;;;13.60;;
49828;SDS011;35723;51.194;5.112;2023-09-12T02:01:55;26.73;;;13.30;;
49828;SDS011;35723;51.194;5.112;2023-09-12T02:04:21;25.50;;;13.68;;
49828;SDS011;35723;51.194;5.112;2023-09-12T02:06:46;28.05;;;13.38;;
49828;SDS011;35723;51.194;5.112;2023-09-12T02:09:12;22.13;;;13.23;;
49828;SDS011;35723;51.194;5.112;2023-09-12T02:11:37;22.40;;;12.23;;
49828;SDS011;35723;51.194;5.112;2023-09-12T02:14:03;24.42;;;13.38;;
49828;SDS011;35723;51.194;5.112;2023-09-12T02:16:30;27.02;;;13.75;;
49828;SDS011;35723;51.194;5.112;2023-09-12T02:18:56;24.55;;;13.52;;
49828;SDS011;35723;51.194;5.112;2023-09-12T02:21:22;23.38;;;13.18;;
49828;SDS011;35723;51.194;5.112;2023-09-12T02:23:47;23.10;;;12.93;;
49828;SDS011;35723;51.194;5.112;2023-09-12T02:26:13;27.45;;;14.20;;
49828;SDS011;35723;51.194;5.112;2023-09-12T02:28:39;25.50;;;13.75;;
49828;SDS011;35723;51.194;5.112;2023-09-12T02:31:09;27.13;;;13.82;;
49828;SDS011;35723;51.194;5.112;2023-09-12T02:33:37;22.42;;;13.35;;
49828;SDS011;35723;51.194;5.112;2023-09-12T02:36:03;25.40;;;14.35;;
49828;SDS011;35723;51.194;5.112;2023-09-12T02:38:29;25.30;;;14.95;;
49828;SDS011;35723;51.194;5.112;2023-09-12T02:40:55;25.73;;;13.45;;
49828;SDS011;35723;51.194;5.112;2023-09-12T02:43:21;27.08;;;15.00;;
49828;SDS011;35723;51.194;5.112;2023-09-12T02:45:46;25.40;;;14.43;;
49828;SDS011;35723;51.194;5.112;2023-09-12T02:48:12;26.25;;;15.35;;
49828;SDS011;35723;51.194;5.112;2023-09-12T02:50:38;30.23;;;15.60;;
49828;SDS011;35723;51.194;5.112;2023-09-12T02:53:03;29.33;;;14.63;;
49828;SDS011;35723;51.194;5.112;2023-09-12T02:55:29;29.33;;;14.73;;
49828;SDS011;35723;51.194;5.112;2023-09-12T02:57:55;26.45;;;14.38;;
49828;SDS011;35723;51.194;5.112;2023-09-12T03:00:21;28.15;;;15.73;;
49828;SDS011;35723;51.194;5.112;2023-09-12T03:02:47;28.52;;;15.23;;
49828;SDS011;35723;51.194;5.112;2023-09-12T03:05:13;27.98;;;14.73;;
49828;SDS011;35723;51.194;5.112;2023-09-12T03:07:38;27.15;;;15.55;;
49828;SDS011;35723;51.194;5.112;2023-09-12T03:10:04;28.05;;;15.80;;
49828;SDS011;35723;51.194;5.112;2023-09-12T03:12:30;29.42;;;17.05;;
49828;SDS011;35723;51.194;5.112;2023-09-12T03:14:56;29.60;;;15.13;;
49828;SDS011;35723;51.194;5.112;2023-09-12T03:17:21;28.42;;;16.45;;
49828;SDS011;35723;51.194;5.112;2023-09-12T03:19:47;30.38;;;16.23;;
49828;SDS011;35723;51.194;5.112;2023-09-12T03:22:13;27.77;;;16.70;;
49828;SDS011;35723;51.194;5.112;2023-09-12T03:24:39;34.78;;;16.80;;
49828;SDS011;35723;51.194;5.112;2023-09-12T03:27:04;30.67;;;17.63;;
49828;SDS011;35723;51.194;5.112;2023-09-12T03:29:30;27.58;;;16.88;;
49828;SDS011;35723;51.194;5.112;2023-09-12T03:31:56;29.58;;;17.00;;
49828;SDS011;35723;51.194;5.112;2023-09-12T03:34:21;33.17;;;18.20;;
49828;SDS011;35723;51.194;5.112;2023-09-12T03:36:47;27.58;;;16.65;;
49828;SDS011;35723;51.194;5.112;2023-09-12T03:39:13;29.10;;;17.27;;
49828;SDS011;35723;51.194;5.112;2023-09-12T03:41:39;33.35;;;18.85;;
49828;SDS011;35723;51.194;5.112;2023-09-12T03:44:05;30.92;;;19.20;;
49828;SDS011;35723;51.194;5.112;2023-09-12T03:46:30;31.67;;;19.25;;
49828;SDS011;35723;51.194;5.112;2023-09-12T03:48:56;33.90;;;20.42;;
49828;SDS011;35723;51.194;5.112;2023-09-12T03:51:21;34.38;;;20.45;;
49828;SDS011;35723;51.194;5.112;2023-09-12T03:53:47;35.78;;;20.70;;
49828;SDS011;35723;51.194;5.112;2023-09-12T03:56:15;36.42;;;20.50;;
49828;SDS011;35723;51.194;5.112;2023-09-12T03:58:41;36.67;;;22.30;;
49828;SDS011;35723;51.194;5.112;2023-09-12T04:01:06;37.85;;;21.48;;
49828;SDS011;35723;51.194;5.112;2023-09-12T04:03:32;38.05;;;21.67;;
49828;SDS011;35723;51.194;5.112;2023-09-12T04:05:58;39.72;;;23.25;;
49828;SDS011;35723;51.194;5.112;2023-09-12T04:08:23;36.88;;;23.85;;
49828;SDS011;35723;51.194;5.112;2023-09-12T04:10:49;35.95;;;21.83;;
49828;SDS011;35723;51.194;5.112;2023-09-12T04:13:15;38.83;;;22.80;;
49828;SDS011;35723;51.194;5.112;2023-09-12T04:15:41;36.92;;;23.17;;
49828;SDS011;35723;51.194;5.112;2023-09-12T04:18:06;34.22;;;21.65;;
49828;SDS011;35723;51.194;5.112;2023-09-12T04:20:32;37.88;;;21.55;;
49828;SDS011;35723;51.194;5.112;2023-09-12T04:23:00;35.88;;;21.80;;
49828;SDS011;35723;51.194;5.112;2023-09-12T04:25:28;36.60;;;22.70;;
49828;SDS011;35723;51.194;5.112;2023-09-12T04:27:53;40.65;;;23.25;;
49828;SDS011;35723;51.194;5.112;2023-09-12T04:30:19;36.40;;;21.95;;
49828;SDS011;35723;51.194;5.112;2023-09-12T04:32:45;39.80;;;22.60;;
49828;SDS011;35723;51.194;5.112;2023-09-12T04:35:10;37.10;;;22.42;;
49828;SDS011;35723;51.194;5.112;2023-09-12T04:37:36;39.80;;;24.42;;
49828;SDS011;35723;51.194;5.112;2023-09-12T04:40:02;41.53;;;23.90;;
49828;SDS011;35723;51.194;5.112;2023-09-12T04:42:30;37.63;;;22.70;;
49828;SDS011;35723;51.194;5.112;2023-09-12T04:44:56;38.75;;;23.67;;
49828;SDS011;35723;51.194;5.112;2023-09-12T04:47:22;39.70;;;23.42;;
49828;SDS011;35723;51.194;5.112;2023-09-12T04:49:48;38.42;;;23.35;;
49828;SDS011;35723;51.194;5.112;2023-09-12T04:52:14;41.80;;;24.00;;
49828;SDS011;35723;51.194;5.112;2023-09-12T04:54:39;38.08;;;22.65;;
49828;SDS011;35723;51.194;5.112;2023-09-12T04:57:05;38.30;;;22.58;;
49828;SDS011;35723;51.194;5.112;2023-09-12T04:59:32;37.60;;;22.08;;
49828;SDS011;35723;51.194;5.112;2023-09-12T05:01:58;37.63;;;22.70;;
49828;SDS011;35723;51.194;5.112;2023-09-12T05:04:23;36.80;;;22.40;;
49828;SDS011;35723;51.194;5.112;2023-09-12T05:06:49;36.15;;;22.70;;
49828;SDS011;35723;51.194;5.112;2023-09-12T05:09:15;37.20;;;22.90;;
49828;SDS011;35723;51.194;5.112;2023-09-12T05:11:41;39.55;;;22.73;;
49828;SDS011;35723;51.194;5.112;2023-09-12T05:14:07;34.70;;;21.98;;
49828;SDS011;35723;51.194;5.112;2023-09-12T05:16:32;39.47;;;23.48;;
49828;SDS011;35723;51.194;5.112;2023-09-12T05:18:58;40.67;;;22.60;;
49828;SDS011;35723;51.194;5.112;2023-09-12T05:21:23;40.00;;;22.77;;
49828;SDS011;35723;51.194;5.112;2023-09-12T05:23:49;37.28;;;23.45;;
49828;SDS011;35723;51.194;5.112;2023-09-12T05:26:15;38.75;;;24.02;;
49828;SDS011;35723;51.194;5.112;2023-09-12T05:28:40;39.08;;;22.65;;
49828;SDS011;35723;51.194;5.112;2023-09-12T05:31:06;38.63;;;22.50;;
49828;SDS011;35723;51.194;5.112;2023-09-12T05:33:32;40.00;;;23.95;;
49828;SDS011;35723;51.194;5.112;2023-09-12T05:35:57;39.30;;;24.33;;
49828;SDS011;35723;51.194;5.112;2023-09-12T05:38:23;40.70;;;23.67;;
49828;SDS011;35723;51.194;5.112;2023-09-12T05:40:49;38.70;;;23.63;;
49828;SDS011;35723;51.194;5.112;2023-09-12T05:43:15;38.13;;;23.42;;
49828;SDS011;35723;51.194;5.112;2023-09-12T05:45:41;40.33;;;24.80;;
49828;SDS011;35723;51.194;5.112;2023-09-12T05:48:07;40.95;;;24.73;;
49828;SDS011;35723;51.194;5.112;2023-09-12T05:50:34;38.95;;;22.80;;
49828;SDS011;35723;51.194;5.112;2023-09-12T05:53:01;38.70;;;23.50;;
49828;SDS011;35723;51.194;5.112;2023-09-12T05:55:27;41.00;;;24.08;;
49828;SDS011;35723;51.194;5.112;2023-09-12T05:57:53;41.53;;;24.30;;
49828;SDS011;35723;51.194;5.112;2023-09-12T06:00:18;44.10;;;24.80;;
49828;SDS011;35723;51.194;5.112;2023-09-12T06:02:45;40.10;;;25.95;;
49828;SDS011;35723;51.194;5.112;2023-09-12T06:05:14;39.97;;;24.08;;
49828;SDS011;35723;51.194;5.112;2023-09-12T06:07:41;45.88;;;24.38;;
49828;SDS011;35723;51.194;5.112;2023-09-12T06:10:07;42.75;;;26.02;;
49828;SDS011;35723;51.194;5.112;2023-09-12T06:12:33;44.33;;;25.85;;
49828;SDS011;35723;51.194;5.112;2023-09-12T06:15:01;40.45;;;25.88;;
49828;SDS011;35723;51.194;5.112;2023-09-12T06:17:27;45.45;;;26.23;;
49828;SDS011;35723;51.194;5.112;2023-09-12T06:19:54;47.03;;;27.55;;
49828;SDS011;35723;51.194;5.112;2023-09-12T06:22:20;40.20;;;23.88;;
49828;SDS011;35723;51.194;5.112;2023-09-12T06:24:47;43.45;;;25.50;;
49828;SDS011;35723;51.194;5.112;2023-09-12T06:27:14;43.00;;;25.15;;
49828;SDS011;35723;51.194;5.112;2023-09-12T06:29:47;39.42;;;25.23;;
49828;SDS011;35723;51.194;5.112;2023-09-12T06:32:14;43.78;;;25.00;;
49828;SDS011;35723;51.194;5.112;2023-09-12T06:34:40;39.38;;;25.20;;
49828;SDS011;35723;51.194;5.112;2023-09-12T06:37:06;39.13;;;23.92;;
49828;SDS011;35723;51.194;5.112;2023-09-12T06:39:32;37.63;;;21.58;;
49828;SDS011;35723;51.194;5.112;2023-09-12T06:41:58;41.65;;;25.08;;
49828;SDS011;35723;51.194;5.112;2023-09-12T06:44:23;41.65;;;26.83;;
49828;SDS011;35723;51.194;5.112;2023-09-12T06:46:49;44.05;;;26.73;;
49828;SDS011;35723;51.194;5.112;2023-09-12T06:49:15;40.05;;;24.33;;
49828;SDS011;35723;51.194;5.112;2023-09-12T06:51:40;44.38;;;26.83;;
49828;SDS011;35723;51.194;5.112;2023-09-12T06:54:06;43.95;;;25.83;;
49828;SDS011;35723;51.194;5.112;2023-09-12T06:56:31;50.25;;;29.98;;
49828;SDS011;35723;51.194;5.112;2023-09-12T06:59:02;52.72;;;29.90;;
49828;SDS011;35723;51.194;5.112;2023-09-12T07:01:30;50.05;;;30.13;;
49828;SDS011;35723;51.194;5.112;2023-09-12T07:03:56;57.63;;;32.80;;
49828;SDS011;35723;51.194;5.112;2023-09-12T07:06:22;56.50;;;35.13;;
49828;SDS011;35723;51.194;5.112;2023-09-12T07:08:48;62.22;;;38.00;;
49828;SDS011;35723;51.194;5.112;2023-09-12T07:11:14;53.78;;;33.40;;
49828;SDS011;35723;51.194;5.112;2023-09-12T07:13:40;53.00;;;30.60;;
49828;SDS011;35723;51.194;5.112;2023-09-12T07:16:06;48.65;;;29.33;;
49828;SDS011;35723;51.194;5.112;2023-09-12T07:18:32;54.80;;;30.83;;
49828;SDS011;35723;51.194;5.112;2023-09-12T07:21:01;58.10;;;31.92;;
49828;SDS011;35723;51.194;5.112;2023-09-12T07:23:28;55.65;;;32.08;;
49828;SDS011;35723;51.194;5.112;2023-09-12T07:25:54;54.53;;;32.05;;
49828;SDS011;35723;51.194;5.112;2023-09-12T07:28:24;50.33;;;26.77;;
49828;SDS011;35723;51.194;5.112;2023-09-12T07:30:56;49.30;;;26.45;;
49828;SDS011;35723;51.194;5.112;2023-09-12T07:33:22;47.42;;;26.73;;
49828;SDS011;35723;51.194;5.112;2023-09-12T07:35:48;46.15;;;25.23;;
49828;SDS011;35723;51.194;5.112;2023-09-12T07:38:17;44.80;;;25.85;;
49828;SDS011;35723;51.194;5.112;2023-09-12T07:40:44;49.05;;;27.17;;
49828;SDS011;35723;51.194;5.112;2023-09-12T07:43:10;51.05;;;26.98;;
49828;SDS011;35723;51.194;5.112;2023-09-12T07:45:36;49.03;;;28.02;;
49828;SDS011;35723;51.194;5.112;2023-09-12T07:48:06;48.97;;;27.98;;
49828;SDS011;35723;51.194;5.112;2023-09-12T07:50:33;46.90;;;26.35;;
49828;SDS011;35723;51.194;5.112;2023-09-12T07:52:59;48.35;;;27.08;;
49828;SDS011;35723;51.194;5.112;2023-09-12T07:55:25;48.90;;;26.80;;
49828;SDS011;35723;51.194;5.112;2023-09-12T07:57:55;46.22;;;26.77;;
49828;SDS011;35723;51.194;5.112;2023-09-12T08:00:20;43.08;;;23.88;;
49828;SDS011;35723;51.194;5.112;2023-09-12T08:02:46;47.85;;;25.45;;
49828;SDS011;35723;51.194;5.112;2023-09-12T08:05:12;45.60;;;25.65;;
49828;SDS011;35723;51.194;5.112;2023-09-12T08:07:38;40.63;;;23.52;;
49828;SDS011;35723;51.194;5.112;2023-09-12T08:10:03;44.17;;;23.88;;
49828;SDS011;35723;51.194;5.112;2023-09-12T08:12:29;40.67;;;24.08;;
49828;SDS011;35723;51.194;5.112;2023-09-12T08:14:55;39.50;;;22.55;;
49828;SDS011;35723;51.194;5.112;2023-09-12T08:17:21;39.75;;;22.27;;
49828;SDS011;35723;51.194;5.112;2023-09-12T08:19:47;41.03;;;22.13;;
49828;SDS011;35723;51.194;5.112;2023-09-12T08:22:13;34.15;;;20.27;;
49828;SDS011;35723;51.194;5.112;2023-09-12T08:24:39;38.50;;;21.92;;
49828;SDS011;35723;51.194;5.112;2023-09-12T08:27:05;37.72;;;19.33;;
49828;SDS011;35723;51.194;5.112;2023-09-12T08:29:31;38.80;;;20.65;;
49828;SDS011;35723;51.194;5.112;2023-09-12T08:31:58;36.47;;;19.85;;
49828;SDS011;35723;51.194;5.112;2023-09-12T08:34:24;39.15;;;20.77;;
49828;SDS011;35723;51.194;5.112;2023-09-12T08:36:49;36.22;;;20.30;;
49828;SDS011;35723;51.194;5.112;2023-09-12T08:39:17;35.72;;;19.98;;
49828;SDS011;35723;51.194;5.112;2023-09-12T08:41:47;31.67;;;18.05;;
49828;SDS011;35723;51.194;5.112;2023-09-12T08:44:13;32.25;;;17.08;;
49828;SDS011;35723;51.194;5.112;2023-09-12T08:46:41;34.30;;;18.63;;
49828;SDS011;35723;51.194;5.112;2023-09-12T08:49:07;36.08;;;18.30;;
49828;SDS011;35723;51.194;5.112;2023-09-12T08:51:35;32.63;;;17.00;;
49828;SDS011;35723;51.194;5.112;2023-09-12T08:54:02;29.60;;;15.65;;
49828;SDS011;35723;51.194;5.112;2023-09-12T08:56:29;26.42;;;13.75;;
49828;SDS011;35723;51.194;5.112;2023-09-12T08:58:56;31.90;;;15.93;;
49828;SDS011;35723;51.194;5.112;2023-09-12T09:01:24;29.60;;;14.85;;
49828;SDS011;35723;51.194;5.112;2023-09-12T09:03:52;30.40;;;18.15;;
49828;SDS011;35723;51.194;5.112;2023-09-12T09:06:19;32.47;;;16.00;;
49828;SDS011;35723;51.194;5.112;2023-09-12T09:08:46;31.95;;;16.17;;
49828;SDS011;35723;51.194;5.112;2023-09-12T09:11:14;30.60;;;15.85;;
49828;SDS011;35723;51.194;5.112;2023-09-12T09:13:39;27.00;;;14.80;;
49828;SDS011;35723;51.194;5.112;2023-09-12T09:16:15;32.28;;;19.42;;
49828;SDS011;35723;51.194;5.112;2023-09-12T09:21:17;25.25;;;11.90;;
49828;SDS011;35723;51.194;5.112;2023-09-12T09:23:49;23.95;;;11.70;;
49828;SDS011;35723;51.194;5.112;2023-09-12T09:26:15;25.92;;;11.73;;
49828;SDS011;35723;51.194;5.112;2023-09-12T09:28:41;25.85;;;13.40;;
49828;SDS011;35723;51.194;5.112;2023-09-12T09:31:10;42.15;;;26.67;;
49828;SDS011;35723;51.194;5.112;2023-09-12T09:33:37;22.70;;;11.85;;
49828;SDS011;35723;51.194;5.112;2023-09-12T09:36:04;21.38;;;9.98;;
49828;SDS011;35723;51.194;5.112;2023-09-12T09:38:31;19.70;;;8.50;;
49828;SDS011;35723;51.194;5.112;2023-09-12T09:40:57;19.60;;;9.50;;
49828;SDS011;35723;51.194;5.112;2023-09-12T09:43:22;18.10;;;8.23;;
49828;SDS011;35723;51.194;5.112;2023-09-12T09:45:50;19.73;;;9.07;;
49828;SDS011;35723;51.194;5.112;2023-09-12T09:50:45;20.92;;;9.43;;
49828;SDS011;35723;51.194;5.112;2023-09-12T09:53:11;22.83;;;10.00;;
49828;SDS011;35723;51.194;5.112;2023-09-12T09:55:36;23.80;;;11.23;;
49828;SDS011;35723;51.194;5.112;2023-09-12T09:58:05;23.27;;;10.93;;
49828;SDS011;35723;51.194;5.112;2023-09-12T10:00:32;25.52;;;12.63;;
49828;SDS011;35723;51.194;5.112;2023-09-12T10:03:02;25.88;;;12.88;;
49828;SDS011;35723;51.194;5.112;2023-09-12T10:05:31;23.83;;;10.07;;
49828;SDS011;35723;51.194;5.112;2023-09-12T10:07:58;20.30;;;9.18;;
49828;SDS011;35723;51.194;5.112;2023-09-12T10:10:27;19.35;;;8.18;;
49828;SDS011;35723;51.194;5.112;2023-09-12T10:12:57;17.90;;;7.82;;
49828;SDS011;35723;51.194;5.112;2023-09-12T10:15:26;17.23;;;7.97;;
49828;SDS011;35723;51.194;5.112;2023-09-12T10:17:58;17.42;;;7.60;;
49828;SDS011;35723;51.194;5.112;2023-09-12T10:20:39;19.95;;;7.43;;
49828;SDS011;35723;51.194;5.112;2023-09-12T10:23:19;18.17;;;7.15;;
49828;SDS011;35723;51.194;5.112;2023-09-12T10:25:52;17.95;;;8.00;;
49828;SDS011;35723;51.194;5.112;2023-09-12T10:28:19;19.45;;;8.35;;
49828;SDS011;35723;51.194;5.112;2023-09-12T10:30:46;15.27;;;6.90;;
49828;SDS011;35723;51.194;5.112;2023-09-12T10:33:12;17.42;;;7.00;;
49828;SDS011;35723;51.194;5.112;2023-09-12T10:35:40;16.88;;;7.28;;
49828;SDS011;35723;51.194;5.112;2023-09-12T10:38:07;19.08;;;7.68;;
49828;SDS011;35723;51.194;5.112;2023-09-12T10:40:35;15.95;;;7.45;;
49828;SDS011;35723;51.194;5.112;2023-09-12T10:43:01;18.42;;;7.70;;
49828;SDS011;35723;51.194;5.112;2023-09-12T10:45:31;17.38;;;8.48;;
49828;SDS011;35723;51.194;5.112;2023-09-12T10:48:00;15.75;;;6.68;;
49828;SDS011;35723;51.194;5.112;2023-09-12T10:50:25;16.55;;;7.00;;
49828;SDS011;35723;51.194;5.112;2023-09-12T10:52:52;14.20;;;7.05;;
49828;SDS011;35723;51.194;5.112;2023-09-12T10:55:18;15.52;;;6.78;;
49828;SDS011;35723;51.194;5.112;2023-09-12T11:00:33;14.75;;;6.63;;
49828;SDS011;35723;51.194;5.112;2023-09-12T11:02:59;21.05;;;9.02;;
49828;SDS011;35723;51.194;5.112;2023-09-12T11:05:51;14.60;;;6.20;;
49828;SDS011;35723;51.194;5.112;2023-09-12T11:08:18;18.17;;;7.38;;
49828;SDS011;35723;51.194;5.112;2023-09-12T11:10:44;13.65;;;6.47;;
49828;SDS011;35723;51.194;5.112;2023-09-12T11:13:17;15.35;;;6.47;;
49828;SDS011;35723;51.194;5.112;2023-09-12T11:18:46;14.75;;;6.30;;
49828;SDS011;35723;51.194;5.112;2023-09-12T11:21:50;14.18;;;6.03;;
49828;SDS011;35723;51.194;5.112;2023-09-12T11:24:17;19.17;;;7.53;;
49828;SDS011;35723;51.194;5.112;2023-09-12T11:26:53;21.23;;;10.65;;
49828;SDS011;35723;51.194;5.112;2023-09-12T11:29:29;19.40;;;9.00;;
49828;SDS011;35723;51.194;5.112;2023-09-12T11:32:00;18.75;;;8.48;;
49828;SDS011;35723;51.194;5.112;2023-09-12T11:34:28;22.45;;;9.90;;
49828;SDS011;35723;51.194;5.112;2023-09-12T11:37:00;21.23;;;10.07;;
49828;SDS011;35723;51.194;5.112;2023-09-12T11:39:28;19.27;;;8.70;;
49828;SDS011;35723;51.194;5.112;2023-09-12T11:41:56;24.73;;;13.70;;
49828;SDS011;35723;51.194;5.112;2023-09-12T11:44:23;23.45;;;12.68;;
49828;SDS011;35723;51.194;5.112;2023-09-12T11:46:51;21.90;;;10.80;;
49828;SDS011;35723;51.194;5.112;2023-09-12T11:49:17;20.33;;;10.27;;
49828;SDS011;35723;51.194;5.112;2023-09-12T11:54:18;28.48;;;14.55;;
49828;SDS011;35723;51.194;5.112;2023-09-12T11:56:46;29.42;;;14.15;;
49828;SDS011;35723;51.194;5.112;2023-09-12T11:59:13;24.13;;;11.63;;
49828;SDS011;35723;51.194;5.112;2023-09-12T12:01:39;24.33;;;12.77;;
49828;SDS011;35723;51.194;5.112;2023-09-12T12:04:06;20.52;;;10.45;;
49828;SDS011;35723;51.194;5.112;2023-09-12T12:06:32;24.73;;;13.50;;
49828;SDS011;35723;51.194;5.112;2023-09-12T12:09:00;23.80;;;10.65;;
49828;SDS011;35723;51.194;5.112;2023-09-12T12:11:27;21.90;;;11.50;;
49828;SDS011;35723;51.194;5.112;2023-09-12T12:13:53;21.02;;;10.27;;
49828;SDS011;35723;51.194;5.112;2023-09-12T12:16:19;19.92;;;9.90;;
49828;SDS011;35723;51.194;5.112;2023-09-12T12:18:44;23.23;;;10.35;;
49828;SDS011;35723;51.194;5.112;2023-09-12T12:21:10;19.73;;;9.40;;
49828;SDS011;35723;51.194;5.112;2023-09-12T12:23:36;22.60;;;10.85;;
49828;SDS011;35723;51.194;5.112;2023-09-12T12:26:07;18.38;;;8.70;;
49828;SDS011;35723;51.194;5.112;2023-09-12T12:28:34;17.20;;;8.40;;
49828;SDS011;35723;51.194;5.112;2023-09-12T12:31:00;20.80;;;9.70;;
49828;SDS011;35723;51.194;5.112;2023-09-12T12:33:27;17.17;;;8.27;;
49828;SDS011;35723;51.194;5.112;2023-09-12T12:36:03;18.35;;;8.57;;
49828;SDS011;35723;51.194;5.112;2023-09-12T12:38:36;13.82;;;7.28;;
49828;SDS011;35723;51.194;5.112;2023-09-12T12:41:03;18.33;;;8.43;;
49828;SDS011;35723;51.194;5.112;2023-09-12T12:43:29;14.80;;;7.32;;
49828;SDS011;35723;51.194;5.112;2023-09-12T12:45:56;21.45;;;9.07;;
49828;SDS011;35723;51.194;5.112;2023-09-12T12:48:33;17.83;;;8.43;;
49828;SDS011;35723;51.194;5.112;2023-09-12T12:51:17;20.80;;;9.32;;
49828;SDS011;35723;51.194;5.112;2023-09-12T12:53:54;18.33;;;8.38;;
49828;SDS011;35723;51.194;5.112;2023-09-12T12:56:26;17.30;;;7.18;;
49828;SDS011;35723;51.194;5.112;2023-09-12T12:58:57;15.60;;;7.00;;
49828;SDS011;35723;51.194;5.112;2023-09-12T13:01:25;18.08;;;7.55;;
49828;SDS011;35723;51.194;5.112;2023-09-12T13:03:51;18.15;;;7.38;;
49828;SDS011;35723;51.194;5.112;2023-09-12T13:06:18;16.13;;;7.43;;
49828;SDS011;35723;51.194;5.112;2023-09-12T13:08:44;14.48;;;6.55;;
49828;SDS011;35723;51.194;5.112;2023-09-12T13:11:12;11.85;;;5.88;;
49828;SDS011;35723;51.194;5.112;2023-09-12T13:13:39;13.40;;;6.05;;
49828;SDS011;35723;51.194;5.112;2023-09-12T13:16:05;14.82;;;6.43;;
49828;SDS011;35723;51.194;5.112;2023-09-12T13:18:34;13.98;;;5.70;;
49828;SDS011;35723;51.194;5.112;2023-09-12T13:21:01;12.32;;;5.55;;
49828;SDS011;35723;51.194;5.112;2023-09-12T13:23:27;10.80;;;5.35;;
49828;SDS011;35723;51.194;5.112;2023-09-12T13:25:52;12.18;;;5.40;;
49828;SDS011;35723;51.194;5.112;2023-09-12T13:28:19;14.23;;;5.53;;
49828;SDS011;35723;51.194;5.112;2023-09-12T13:30:44;14.32;;;5.78;;
49828;SDS011;35723;51.194;5.112;2023-09-12T13:33:13;11.55;;;5.70;;
49828;SDS011;35723;51.194;5.112;2023-09-12T13:35:40;12.18;;;5.32;;
49828;SDS011;35723;51.194;5.112;2023-09-12T13:38:06;11.77;;;5.32;;
49828;SDS011;35723;51.194;5.112;2023-09-12T13:40:40;12.60;;;5.40;;
49828;SDS011;35723;51.194;5.112;2023-09-12T13:43:07;12.48;;;5.18;;
49828;SDS011;35723;51.194;5.112;2023-09-12T13:45:42;14.13;;;5.32;;
49828;SDS011;35723;51.194;5.112;2023-09-12T13:48:07;11.95;;;5.22;;
49828;SDS011;35723;51.194;5.112;2023-09-12T13:50:33;10.05;;;4.80;;
49828;SDS011;35723;51.194;5.112;2023-09-12T13:52:59;14.55;;;5.63;;
49828;SDS011;35723;51.194;5.112;2023-09-12T13:57:58;14.25;;;6.38;;
49828;SDS011;35723;51.194;5.112;2023-09-12T14:00:24;12.02;;;5.78;;
49828;SDS011;35723;51.194;5.112;2023-09-12T14:02:49;12.40;;;6.05;;
49828;SDS011;35723;51.194;5.112;2023-09-12T14:05:15;13.43;;;5.90;;
49828;SDS011;35723;51.194;5.112;2023-09-12T14:07:41;14.77;;;6.22;;
49828;SDS011;35723;51.194;5.112;2023-09-12T14:10:07;12.68;;;6.00;;
49828;SDS011;35723;51.194;5.112;2023-09-12T14:12:32;12.30;;;5.90;;
49828;SDS011;35723;51.194;5.112;2023-09-12T14:14:58;12.30;;;5.88;;
49828;SDS011;35723;51.194;5.112;2023-09-12T14:17:24;14.18;;;6.22;;
49828;SDS011;35723;51.194;5.112;2023-09-12T14:19:50;12.60;;;6.10;;
49828;SDS011;35723;51.194;5.112;2023-09-12T14:22:15;11.85;;;5.63;;
49828;SDS011;35723;51.194;5.112;2023-09-12T14:24:42;11.50;;;5.50;;
49828;SDS011;35723;51.194;5.112;2023-09-12T14:27:08;12.70;;;5.57;;
49828;SDS011;35723;51.194;5.112;2023-09-12T14:29:33;13.02;;;5.78;;
49828;SDS011;35723;51.194;5.112;2023-09-12T14:31:59;11.07;;;5.70;;
49828;SDS011;35723;51.194;5.112;2023-09-12T14:34:25;13.23;;;6.00;;
49828;SDS011;35723;51.194;5.112;2023-09-12T14:36:56;12.32;;;5.68;;
49828;SDS011;35723;51.194;5.112;2023-09-12T14:39:22;11.10;;;5.30;;
49828;SDS011;35723;51.194;5.112;2023-09-12T14:41:49;11.00;;;5.80;;
49828;SDS011;35723;51.194;5.112;2023-09-12T14:44:23;10.52;;;5.43;;
49828;SDS011;35723;51.194;5.112;2023-09-12T14:46:49;11.98;;;5.93;;